sensor_id;sensor_type;location;lat;lon;timestamp;temperature;humidity
60313;DHT22;46158;52.850;6.970;2023-04-25T00:00:50;13.10;71.60
60313;DHT22;46158;52.850;6.970;2023-04-25T00:03:17;13.10;71.60
60313;DHT22;46158;52.850;6.970;2023-04-25T00:05:44;13.10;71.60
60313;DHT22;46158;52.850;6.970;2023-04-25T00:08:10;13.10;71.60
60313;DHT22;46158;52.850;6.970;2023-04-25T00:10:36;13.10;71.60
60313;DHT22;46158;52.850;6.970;2023-04-25T00:13:02;13.10;71.60
60313;DHT22;46158;52.850;6.970;2023-04-25T00:15:28;13.10;71.60
60313;DHT22;46158;52.850;6.970;2023-04-25T00:17:56;13.10;71.60
60313;DHT22;46158;52.850;6.970;2023-04-25T00:20:22;13.10;71.60
60313;DHT22;46158;52.850;6.970;2023-04-25T00:22:49;13.00;71.50
60313;DHT22;46158;52.850;6.970;2023-04-25T00:25:15;13.10;71.60
60313;DHT22;46158;52.850;6.970;2023-04-25T00:27:40;13.00;71.50
60313;DHT22;46158;52.850;6.970;2023-04-25T00:30:07;13.00;71.50
60313;DHT22;46158;52.850;6.970;2023-04-25T00:32:33;13.10;71.60
60313;DHT22;46158;52.850;6.970;2023-04-25T00:34:59;13.00;71.60
60313;DHT22;46158;52.850;6.970;2023-04-25T00:37:25;13.00;71.50
60313;DHT22;46158;52.850;6.970;2023-04-25T00:39:51;13.10;71.60
60313;DHT22;46158;52.850;6.970;2023-04-25T00:42:19;13.00;71.50
60313;DHT22;46158;52.850;6.970;2023-04-25T00:44:45;13.00;71.50
60313;DHT22;46158;52.850;6.970;2023-04-25T00:47:11;13.10;71.60
60313;DHT22;46158;52.850;6.970;2023-04-25T00:49:37;13.00;71.50
60313;DHT22;46158;52.850;6.970;2023-04-25T00:52:02;13.00;71.50
60313;DHT22;46158;52.850;6.970;2023-04-25T00:54:28;13.00;71.50
60313;DHT22;46158;52.850;6.970;2023-04-25T00:56:55;13.00;71.50
60313;DHT22;46158;52.850;6.970;2023-04-25T00:59:21;13.00;71.50
60313;DHT22;46158;52.850;6.970;2023-04-25T01:01:46;13.00;71.60
60313;DHT22;46158;52.850;6.970;2023-04-25T01:04:13;13.00;71.50
60313;DHT22;46158;52.850;6.970;2023-04-25T01:06:39;13.00;71.60
60313;DHT22;46158;52.850;6.970;2023-04-25T01:09:05;13.00;71.50
60313;DHT22;46158;52.850;6.970;2023-04-25T01:11:31;13.00;71.50
60313;DHT22;46158;52.850;6.970;2023-04-25T01:13:56;13.00;71.50
60313;DHT22;46158;52.850;6.970;2023-04-25T01:16:23;13.00;71.60
60313;DHT22;46158;52.850;6.970;2023-04-25T01:18:50;13.00;71.50
60313;DHT22;46158;52.850;6.970;2023-04-25T01:21:17;13.00;71.50
60313;DHT22;46158;52.850;6.970;2023-04-25T01:23:43;12.90;71.50
60313;DHT22;46158;52.850;6.970;2023-04-25T01:26:09;12.90;71.50
60313;DHT22;46158;52.850;6.970;2023-04-25T01:28:36;12.90;71.50
60313;DHT22;46158;52.850;6.970;2023-04-25T01:31:01;12.90;71.50
60313;DHT22;46158;52.850;6.970;2023-04-25T01:33:27;12.90;71.50
60313;DHT22;46158;52.850;6.970;2023-04-25T01:35:53;12.90;71.50
60313;DHT22;46158;52.850;6.970;2023-04-25T01:38:18;12.90;71.50
60313;DHT22;46158;52.850;6.970;2023-04-25T01:40:45;12.90;71.50
60313;DHT22;46158;52.850;6.970;2023-04-25T01:43:12;12.90;71.50
60313;DHT22;46158;52.850;6.970;2023-04-25T01:45:40;12.90;71.50
60313;DHT22;46158;52.850;6.970;2023-04-25T01:48:08;12.90;71.50
60313;DHT22;46158;52.850;6.970;2023-04-25T01:50:34;12.90;71.50
60313;DHT22;46158;52.850;6.970;2023-04-25T01:52:59;12.90;71.50
60313;DHT22;46158;52.850;6.970;2023-04-25T01:55:25;12.90;71.50
60313;DHT22;46158;52.850;6.970;2023-04-25T01:57:51;12.90;72.20
60313;DHT22;46158;52.850;6.970;2023-04-25T02:00:17;12.90;71.60
60313;DHT22;46158;52.850;6.970;2023-04-25T02:02:42;12.90;71.60
60313;DHT22;46158;52.850;6.970;2023-04-25T02:05:08;12.90;71.70
60313;DHT22;46158;52.850;6.970;2023-04-25T02:07:34;12.90;71.70
60313;DHT22;46158;52.850;6.970;2023-04-25T02:10:00;12.80;71.70
60313;DHT22;46158;52.850;6.970;2023-04-25T02:12:26;12.80;71.60
60313;DHT22;46158;52.850;6.970;2023-04-25T02:14:52;12.80;71.70
60313;DHT22;46158;52.850;6.970;2023-04-25T02:17:18;12.80;71.60
60313;DHT22;46158;52.850;6.970;2023-04-25T02:19:44;12.80;71.70
60313;DHT22;46158;52.850;6.970;2023-04-25T02:22:10;12.90;71.80
60313;DHT22;46158;52.850;6.970;2023-04-25T02:24:36;12.80;71.70
60313;DHT22;46158;52.850;6.970;2023-04-25T02:27:01;12.80;71.70
60313;DHT22;46158;52.850;6.970;2023-04-25T02:29:27;12.90;71.70
60313;DHT22;46158;52.850;6.970;2023-04-25T02:31:53;12.90;71.70
60313;DHT22;46158;52.850;6.970;2023-04-25T02:34:19;12.90;71.70
60313;DHT22;46158;52.850;6.970;2023-04-25T02:36:45;12.90;71.80
60313;DHT22;46158;52.850;6.970;2023-04-25T02:39:10;12.90;71.80
60313;DHT22;46158;52.850;6.970;2023-04-25T02:41:36;12.90;71.80
60313;DHT22;46158;52.850;6.970;2023-04-25T02:44:02;13.00;72.00
60313;DHT22;46158;52.850;6.970;2023-04-25T02:46:27;12.90;71.90
60313;DHT22;46158;52.850;6.970;2023-04-25T02:48:53;12.90;72.00
60313;DHT22;46158;52.850;6.970;2023-04-25T02:51:18;13.00;72.10
60313;DHT22;46158;52.850;6.970;2023-04-25T02:53:44;13.00;72.20
60313;DHT22;46158;52.850;6.970;2023-04-25T02:56:10;13.00;72.20
60313;DHT22;46158;52.850;6.970;2023-04-25T02:58:36;13.00;72.20
60313;DHT22;46158;52.850;6.970;2023-04-25T03:01:01;13.00;72.20
60313;DHT22;46158;52.850;6.970;2023-04-25T03:03:27;13.00;72.20
60313;DHT22;46158;52.850;6.970;2023-04-25T03:05:53;13.10;72.20
60313;DHT22;46158;52.850;6.970;2023-04-25T03:08:18;13.00;72.10
60313;DHT22;46158;52.850;6.970;2023-04-25T03:10:44;13.10;72.20
60313;DHT22;46158;52.850;6.970;2023-04-25T03:13:10;13.00;72.10
60313;DHT22;46158;52.850;6.970;2023-04-25T03:15:36;13.10;72.10
60313;DHT22;46158;52.850;6.970;2023-04-25T03:18:04;13.10;72.10
60313;DHT22;46158;52.850;6.970;2023-04-25T03:20:30;13.10;72.10
60313;DHT22;46158;52.850;6.970;2023-04-25T03:22:56;13.10;72.20
60313;DHT22;46158;52.850;6.970;2023-04-25T03:25:22;13.10;72.20
60313;DHT22;46158;52.850;6.970;2023-04-25T03:27:47;13.10;72.20
60313;DHT22;46158;52.850;6.970;2023-04-25T03:30:13;13.10;72.20
60313;DHT22;46158;52.850;6.970;2023-04-25T03:32:39;13.20;72.30
60313;DHT22;46158;52.850;6.970;2023-04-25T03:35:05;13.10;72.20
60313;DHT22;46158;52.850;6.970;2023-04-25T03:37:31;13.20;72.30
60313;DHT22;46158;52.850;6.970;2023-04-25T03:39:56;13.20;72.30
60313;DHT22;46158;52.850;6.970;2023-04-25T03:42:22;13.10;72.20
60313;DHT22;46158;52.850;6.970;2023-04-25T03:44:49;13.20;72.30
60313;DHT22;46158;52.850;6.970;2023-04-25T03:47:15;13.20;72.30
60313;DHT22;46158;52.850;6.970;2023-04-25T03:49:41;13.20;72.30
60313;DHT22;46158;52.850;6.970;2023-04-25T03:52:07;13.20;72.20
60313;DHT22;46158;52.850;6.970;2023-04-25T03:54:32;13.20;72.20
60313;DHT22;46158;52.850;6.970;2023-04-25T03:56:58;13.20;72.30
60313;DHT22;46158;52.850;6.970;2023-04-25T03:59:24;13.20;72.30
60313;DHT22;46158;52.850;6.970;2023-04-25T04:01:50;13.20;72.30
60313;DHT22;46158;52.850;6.970;2023-04-25T04:04:16;13.20;72.30
60313;DHT22;46158;52.850;6.970;2023-04-25T04:06:42;13.20;72.40
60313;DHT22;46158;52.850;6.970;2023-04-25T04:09:08;13.20;72.30
60313;DHT22;46158;52.850;6.970;2023-04-25T04:11:37;13.20;72.40
60313;DHT22;46158;52.850;6.970;2023-04-25T04:14:05;13.20;72.40
60313;DHT22;46158;52.850;6.970;2023-04-25T04:16:31;13.20;72.40
60313;DHT22;46158;52.850;6.970;2023-04-25T04:18:57;13.20;72.40
60313;DHT22;46158;52.850;6.970;2023-04-25T04:21:22;13.20;72.40
60313;DHT22;46158;52.850;6.970;2023-04-25T04:23:48;13.20;72.40
60313;DHT22;46158;52.850;6.970;2023-04-25T04:26:14;13.20;72.50
60313;DHT22;46158;52.850;6.970;2023-04-25T04:28:42;13.20;72.40
60313;DHT22;46158;52.850;6.970;2023-04-25T04:31:10;13.20;72.40
60313;DHT22;46158;52.850;6.970;2023-04-25T04:33:36;13.20;72.40
60313;DHT22;46158;52.850;6.970;2023-04-25T04:36:03;13.20;72.40
60313;DHT22;46158;52.850;6.970;2023-04-25T04:38:29;13.20;72.40
60313;DHT22;46158;52.850;6.970;2023-04-25T04:40:55;13.20;72.30
60313;DHT22;46158;52.850;6.970;2023-04-25T04:43:21;13.20;72.50
60313;DHT22;46158;52.850;6.970;2023-04-25T04:45:48;13.20;72.40
60313;DHT22;46158;52.850;6.970;2023-04-25T04:48:16;13.20;72.40
60313;DHT22;46158;52.850;6.970;2023-04-25T04:50:44;13.30;72.50
60313;DHT22;46158;52.850;6.970;2023-04-25T04:53:13;13.20;72.50
60313;DHT22;46158;52.850;6.970;2023-04-25T04:55:38;13.30;72.60
60313;DHT22;46158;52.850;6.970;2023-04-25T04:58:06;13.30;72.60
60313;DHT22;46158;52.850;6.970;2023-04-25T05:00:32;13.30;72.60
60313;DHT22;46158;52.850;6.970;2023-04-25T05:02:58;13.30;72.60
60313;DHT22;46158;52.850;6.970;2023-04-25T05:05:24;13.30;72.60
60313;DHT22;46158;52.850;6.970;2023-04-25T05:07:50;13.30;72.60
60313;DHT22;46158;52.850;6.970;2023-04-25T05:10:17;13.30;72.60
60313;DHT22;46158;52.850;6.970;2023-04-25T05:12:43;13.30;72.60
60313;DHT22;46158;52.850;6.970;2023-04-25T05:15:09;13.30;72.50
60313;DHT22;46158;52.850;6.970;2023-04-25T05:17:36;13.30;72.60
60313;DHT22;46158;52.850;6.970;2023-04-25T05:20:02;13.30;72.60
60313;DHT22;46158;52.850;6.970;2023-04-25T05:22:28;13.30;72.60
60313;DHT22;46158;52.850;6.970;2023-04-25T05:24:53;13.30;72.70
60313;DHT22;46158;52.850;6.970;2023-04-25T05:27:20;13.30;72.60
60313;DHT22;46158;52.850;6.970;2023-04-25T05:29:45;13.30;72.60
60313;DHT22;46158;52.850;6.970;2023-04-25T05:32:11;13.30;72.70
60313;DHT22;46158;52.850;6.970;2023-04-25T05:34:37;13.30;72.70
60313;DHT22;46158;52.850;6.970;2023-04-25T05:37:02;13.30;72.70
60313;DHT22;46158;52.850;6.970;2023-04-25T05:39:28;13.30;72.70
60313;DHT22;46158;52.850;6.970;2023-04-25T05:41:54;13.30;72.70
60313;DHT22;46158;52.850;6.970;2023-04-25T05:44:20;13.30;73.30
60313;DHT22;46158;52.850;6.970;2023-04-25T05:46:46;13.30;72.70
60313;DHT22;46158;52.850;6.970;2023-04-25T05:49:12;13.30;72.70
60313;DHT22;46158;52.850;6.970;2023-04-25T05:51:38;13.30;72.70
60313;DHT22;46158;52.850;6.970;2023-04-25T05:54:04;13.30;72.70
60313;DHT22;46158;52.850;6.970;2023-04-25T05:56:30;13.40;72.80
60313;DHT22;46158;52.850;6.970;2023-04-25T05:58:55;13.30;72.80
60313;DHT22;46158;52.850;6.970;2023-04-25T06:01:22;13.40;72.90
60313;DHT22;46158;52.850;6.970;2023-04-25T06:03:49;13.30;72.80
60313;DHT22;46158;52.850;6.970;2023-04-25T06:06:15;13.40;73.00
60313;DHT22;46158;52.850;6.970;2023-04-25T06:08:41;13.30;72.90
60313;DHT22;46158;52.850;6.970;2023-04-25T06:11:07;13.40;73.00
60313;DHT22;46158;52.850;6.970;2023-04-25T06:13:32;13.40;73.00
60313;DHT22;46158;52.850;6.970;2023-04-25T06:15:58;13.40;73.00
60313;DHT22;46158;52.850;6.970;2023-04-25T06:18:24;13.40;73.00
60313;DHT22;46158;52.850;6.970;2023-04-25T06:20:50;13.40;73.00
60313;DHT22;46158;52.850;6.970;2023-04-25T06:23:16;13.40;72.90
60313;DHT22;46158;52.850;6.970;2023-04-25T06:25:41;13.40;72.90
60313;DHT22;46158;52.850;6.970;2023-04-25T06:28:07;13.40;73.00
60313;DHT22;46158;52.850;6.970;2023-04-25T06:30:33;13.40;73.00
60313;DHT22;46158;52.850;6.970;2023-04-25T06:32:59;13.40;73.00
60313;DHT22;46158;52.850;6.970;2023-04-25T06:35:24;13.40;73.00
60313;DHT22;46158;52.850;6.970;2023-04-25T06:37:50;13.40;73.10
60313;DHT22;46158;52.850;6.970;2023-04-25T06:40:16;13.40;73.10
60313;DHT22;46158;52.850;6.970;2023-04-25T06:42:43;13.40;73.20
60313;DHT22;46158;52.850;6.970;2023-04-25T06:45:08;13.40;73.30
60313;DHT22;46158;52.850;6.970;2023-04-25T06:47:34;13.40;73.30
60313;DHT22;46158;52.850;6.970;2023-04-25T06:50:00;13.40;73.30
60313;DHT22;46158;52.850;6.970;2023-04-25T06:52:26;13.40;73.50
60313;DHT22;46158;52.850;6.970;2023-04-25T06:54:51;13.50;73.50
60313;DHT22;46158;52.850;6.970;2023-04-25T06:57:17;13.50;73.60
60313;DHT22;46158;52.850;6.970;2023-04-25T06:59:43;13.50;73.60
60313;DHT22;46158;52.850;6.970;2023-04-25T07:02:08;13.50;73.60
60313;DHT22;46158;52.850;6.970;2023-04-25T07:04:34;13.50;73.60
60313;DHT22;46158;52.850;6.970;2023-04-25T07:07:00;13.50;73.60
60313;DHT22;46158;52.850;6.970;2023-04-25T07:09:28;13.50;73.60
60313;DHT22;46158;52.850;6.970;2023-04-25T07:11:53;13.50;73.60
60313;DHT22;46158;52.850;6.970;2023-04-25T07:14:19;13.50;73.60
60313;DHT22;46158;52.850;6.970;2023-04-25T07:16:45;13.50;74.40
60313;DHT22;46158;52.850;6.970;2023-04-25T07:19:11;13.60;73.80
60313;DHT22;46158;52.850;6.970;2023-04-25T07:21:36;13.50;73.70
60313;DHT22;46158;52.850;6.970;2023-04-25T07:24:02;13.60;73.80
60313;DHT22;46158;52.850;6.970;2023-04-25T07:26:28;13.60;73.80
60313;DHT22;46158;52.850;6.970;2023-04-25T07:28:54;13.60;73.80
60313;DHT22;46158;52.850;6.970;2023-04-25T07:31:20;13.60;73.80
60313;DHT22;46158;52.850;6.970;2023-04-25T07:33:46;13.70;74.50
60313;DHT22;46158;52.850;6.970;2023-04-25T07:36:12;13.70;73.80
60313;DHT22;46158;52.850;6.970;2023-04-25T07:38:38;13.70;73.80
60313;DHT22;46158;52.850;6.970;2023-04-25T07:41:04;13.70;73.80
60313;DHT22;46158;52.850;6.970;2023-04-25T07:43:30;13.70;73.80
60313;DHT22;46158;52.850;6.970;2023-04-25T07:45:56;13.80;73.90
60313;DHT22;46158;52.850;6.970;2023-04-25T07:48:22;13.70;73.80
60313;DHT22;46158;52.850;6.970;2023-04-25T07:50:48;13.80;73.80
60313;DHT22;46158;52.850;6.970;2023-04-25T07:53:14;13.80;73.70
60313;DHT22;46158;52.850;6.970;2023-04-25T07:55:40;13.80;73.70
60313;DHT22;46158;52.850;6.970;2023-04-25T07:58:06;13.80;73.60
60313;DHT22;46158;52.850;6.970;2023-04-25T08:00:32;13.80;73.60
60313;DHT22;46158;52.850;6.970;2023-04-25T08:02:58;13.80;73.50
60313;DHT22;46158;52.850;6.970;2023-04-25T08:05:24;13.80;73.50
60313;DHT22;46158;52.850;6.970;2023-04-25T08:07:50;13.80;73.40
60313;DHT22;46158;52.850;6.970;2023-04-25T08:10:16;13.90;73.40
60313;DHT22;46158;52.850;6.970;2023-04-25T08:12:41;13.80;73.30
60313;DHT22;46158;52.850;6.970;2023-04-25T08:15:08;13.90;73.30
60313;DHT22;46158;52.850;6.970;2023-04-25T08:17:34;13.80;73.20
60313;DHT22;46158;52.850;6.970;2023-04-25T08:19:59;13.90;73.20
60313;DHT22;46158;52.850;6.970;2023-04-25T08:22:25;13.90;73.20
60313;DHT22;46158;52.850;6.970;2023-04-25T08:24:51;13.90;73.20
60313;DHT22;46158;52.850;6.970;2023-04-25T08:27:19;13.90;73.20
60313;DHT22;46158;52.850;6.970;2023-04-25T08:29:46;13.90;73.20
60313;DHT22;46158;52.850;6.970;2023-04-25T08:32:12;13.80;73.10
60313;DHT22;46158;52.850;6.970;2023-04-25T08:34:37;13.80;73.10
60313;DHT22;46158;52.850;6.970;2023-04-25T08:37:04;13.90;73.30
60313;DHT22;46158;52.850;6.970;2023-04-25T08:39:31;13.90;73.30
60313;DHT22;46158;52.850;6.970;2023-04-25T08:41:56;13.90;73.20
60313;DHT22;46158;52.850;6.970;2023-04-25T08:44:23;13.90;73.20
60313;DHT22;46158;52.850;6.970;2023-04-25T08:46:50;13.90;73.20
60313;DHT22;46158;52.850;6.970;2023-04-25T08:49:17;13.90;73.20
60313;DHT22;46158;52.850;6.970;2023-04-25T08:51:46;13.90;73.20
60313;DHT22;46158;52.850;6.970;2023-04-25T08:54:13;13.90;73.20
60313;DHT22;46158;52.850;6.970;2023-04-25T08:56:45;13.90;73.10
60313;DHT22;46158;52.850;6.970;2023-04-25T08:59:12;13.90;73.10
60313;DHT22;46158;52.850;6.970;2023-04-25T09:01:38;13.90;73.10
60313;DHT22;46158;52.850;6.970;2023-04-25T09:04:03;13.90;73.00
60313;DHT22;46158;52.850;6.970;2023-04-25T09:06:30;13.90;73.00
60313;DHT22;46158;52.850;6.970;2023-04-25T09:09:02;13.90;73.00
60313;DHT22;46158;52.850;6.970;2023-04-25T09:11:29;13.90;73.00
60313;DHT22;46158;52.850;6.970;2023-04-25T09:14:14;13.90;73.00
60313;DHT22;46158;52.850;6.970;2023-04-25T09:19:25;14.00;73.00
60313;DHT22;46158;52.850;6.970;2023-04-25T09:21:54;13.90;72.90
60313;DHT22;46158;52.850;6.970;2023-04-25T09:24:37;13.90;72.90
60313;DHT22;46158;52.850;6.970;2023-04-25T09:27:05;13.90;72.90
60313;DHT22;46158;52.850;6.970;2023-04-25T09:29:37;14.00;72.90
60313;DHT22;46158;52.850;6.970;2023-04-25T09:34:43;13.90;72.80
60313;DHT22;46158;52.850;6.970;2023-04-25T09:37:10;13.90;72.80
60313;DHT22;46158;52.850;6.970;2023-04-25T09:39:40;13.90;72.80
60313;DHT22;46158;52.850;6.970;2023-04-25T09:42:06;14.00;72.90
60313;DHT22;46158;52.850;6.970;2023-04-25T09:44:32;13.90;72.80
60313;DHT22;46158;52.850;6.970;2023-04-25T09:46:57;13.90;72.80
60313;DHT22;46158;52.850;6.970;2023-04-25T09:49:44;13.90;72.80
60313;DHT22;46158;52.850;6.970;2023-04-25T09:52:19;13.90;72.80
60313;DHT22;46158;52.850;6.970;2023-04-25T09:54:45;13.90;72.80
60313;DHT22;46158;52.850;6.970;2023-04-25T09:57:16;13.90;72.80
60313;DHT22;46158;52.850;6.970;2023-04-25T09:59:49;13.90;72.80
60313;DHT22;46158;52.850;6.970;2023-04-25T10:02:18;13.90;72.80
60313;DHT22;46158;52.850;6.970;2023-04-25T10:04:49;13.90;72.90
60313;DHT22;46158;52.850;6.970;2023-04-25T10:07:18;13.90;72.90
60313;DHT22;46158;52.850;6.970;2023-04-25T10:09:47;13.90;72.90
60313;DHT22;46158;52.850;6.970;2023-04-25T10:12:13;13.90;72.90
60313;DHT22;46158;52.850;6.970;2023-04-25T10:14:39;13.90;72.80
60313;DHT22;46158;52.850;6.970;2023-04-25T10:17:05;13.90;72.80
60313;DHT22;46158;52.850;6.970;2023-04-25T10:19:32;13.90;72.80
60313;DHT22;46158;52.850;6.970;2023-04-25T10:22:14;13.90;72.80
60313;DHT22;46158;52.850;6.970;2023-04-25T10:24:41;13.90;72.80
60313;DHT22;46158;52.850;6.970;2023-04-25T10:27:08;13.90;72.80
60313;DHT22;46158;52.850;6.970;2023-04-25T10:29:35;13.90;72.70
60313;DHT22;46158;52.850;6.970;2023-04-25T10:32:01;13.90;72.70
60313;DHT22;46158;52.850;6.970;2023-04-25T10:34:41;13.90;72.70
60313;DHT22;46158;52.850;6.970;2023-04-25T10:37:16;13.90;72.60
60313;DHT22;46158;52.850;6.970;2023-04-25T10:39:44;13.80;72.60
60313;DHT22;46158;52.850;6.970;2023-04-25T10:42:11;13.80;72.60
60313;DHT22;46158;52.850;6.970;2023-04-25T10:44:38;13.80;72.60
60313;DHT22;46158;52.850;6.970;2023-04-25T10:47:07;13.80;72.50
60313;DHT22;46158;52.850;6.970;2023-04-25T10:49:41;13.90;72.60
60313;DHT22;46158;52.850;6.970;2023-04-25T11:00:13;13.80;72.30
60313;DHT22;46158;52.850;6.970;2023-04-25T11:02:51;13.80;72.30
60313;DHT22;46158;52.850;6.970;2023-04-25T11:05:35;13.80;72.30
60313;DHT22;46158;52.850;6.970;2023-04-25T11:08:02;13.80;72.30
60313;DHT22;46158;52.850;6.970;2023-04-25T11:10:32;13.80;72.40
60313;DHT22;46158;52.850;6.970;2023-04-25T11:13:00;13.80;72.40
60313;DHT22;46158;52.850;6.970;2023-04-25T11:15:28;13.80;72.30
60313;DHT22;46158;52.850;6.970;2023-04-25T11:17:54;13.80;72.30
60313;DHT22;46158;52.850;6.970;2023-04-25T11:20:21;13.90;72.40
60313;DHT22;46158;52.850;6.970;2023-04-25T11:22:47;13.80;72.30
60313;DHT22;46158;52.850;6.970;2023-04-25T11:25:15;13.80;72.30
60313;DHT22;46158;52.850;6.970;2023-04-25T11:27:58;13.80;72.30
60313;DHT22;46158;52.850;6.970;2023-04-25T11:30:25;13.90;72.30
60313;DHT22;46158;52.850;6.970;2023-04-25T11:32:51;13.80;72.30
60313;DHT22;46158;52.850;6.970;2023-04-25T11:35:20;13.80;72.30
60313;DHT22;46158;52.850;6.970;2023-04-25T11:37:48;13.80;72.20
60313;DHT22;46158;52.850;6.970;2023-04-25T11:40:15;13.80;72.20
60313;DHT22;46158;52.850;6.970;2023-04-25T11:42:45;13.80;72.90
60313;DHT22;46158;52.850;6.970;2023-04-25T11:45:11;13.80;72.10
60313;DHT22;46158;52.850;6.970;2023-04-25T11:47:37;13.80;72.20
60313;DHT22;46158;52.850;6.970;2023-04-25T11:50:05;13.80;72.10
60313;DHT22;46158;52.850;6.970;2023-04-25T11:52:38;13.80;72.10
60313;DHT22;46158;52.850;6.970;2023-04-25T11:55:15;13.80;72.10
60313;DHT22;46158;52.850;6.970;2023-04-25T11:57:43;13.80;72.10
60313;DHT22;46158;52.850;6.970;2023-04-25T12:00:29;13.80;72.10
60313;DHT22;46158;52.850;6.970;2023-04-25T12:02:56;13.80;72.10
60313;DHT22;46158;52.850;6.970;2023-04-25T12:05:29;13.80;72.20
60313;DHT22;46158;52.850;6.970;2023-04-25T12:07:55;13.80;72.10
60313;DHT22;46158;52.850;6.970;2023-04-25T12:10:21;13.80;72.10
60313;DHT22;46158;52.850;6.970;2023-04-25T12:12:47;13.80;72.10
60313;DHT22;46158;52.850;6.970;2023-04-25T12:15:25;13.80;72.20
60313;DHT22;46158;52.850;6.970;2023-04-25T12:17:53;13.80;72.10
60313;DHT22;46158;52.850;6.970;2023-04-25T12:20:23;13.80;72.10
60313;DHT22;46158;52.850;6.970;2023-04-25T12:22:50;13.80;72.20
60313;DHT22;46158;52.850;6.970;2023-04-25T12:25:41;13.80;72.20
60313;DHT22;46158;52.850;6.970;2023-04-25T12:28:18;13.80;72.20
60313;DHT22;46158;52.850;6.970;2023-04-25T12:30:58;13.70;72.10
60313;DHT22;46158;52.850;6.970;2023-04-25T12:33:25;13.80;72.30
60313;DHT22;46158;52.850;6.970;2023-04-25T12:35:52;13.80;72.30
60313;DHT22;46158;52.850;6.970;2023-04-25T12:38:38;13.70;72.10
60313;DHT22;46158;52.850;6.970;2023-04-25T12:41:05;13.80;72.10
60313;DHT22;46158;52.850;6.970;2023-04-25T12:43:31;13.80;72.30
60313;DHT22;46158;52.850;6.970;2023-04-25T12:46:00;13.80;72.20
60313;DHT22;46158;52.850;6.970;2023-04-25T12:48:26;13.80;72.20
60313;DHT22;46158;52.850;6.970;2023-04-25T12:50:52;13.80;72.20
60313;DHT22;46158;52.850;6.970;2023-04-25T12:53:19;13.80;72.20
60313;DHT22;46158;52.850;6.970;2023-04-25T12:55:46;13.80;72.20
60313;DHT22;46158;52.850;6.970;2023-04-25T12:58:15;13.70;72.10
60313;DHT22;46158;52.850;6.970;2023-04-25T13:00:41;13.70;72.10
60313;DHT22;46158;52.850;6.970;2023-04-25T13:03:08;13.70;72.10
60313;DHT22;46158;52.850;6.970;2023-04-25T13:05:35;13.80;72.10
60313;DHT22;46158;52.850;6.970;2023-04-25T13:08:01;13.80;72.10
60313;DHT22;46158;52.850;6.970;2023-04-25T13:10:27;13.80;72.10
60313;DHT22;46158;52.850;6.970;2023-04-25T13:12:52;13.70;72.00
60313;DHT22;46158;52.850;6.970;2023-04-25T13:15:18;13.70;72.60
60313;DHT22;46158;52.850;6.970;2023-04-25T13:17:44;13.80;72.00
60313;DHT22;46158;52.850;6.970;2023-04-25T13:20:10;13.70;71.90
60313;DHT22;46158;52.850;6.970;2023-04-25T13:22:37;13.70;71.90
60313;DHT22;46158;52.850;6.970;2023-04-25T13:25:07;13.80;71.90
60313;DHT22;46158;52.850;6.970;2023-04-25T13:27:36;13.80;72.00
60313;DHT22;46158;52.850;6.970;2023-04-25T13:30:04;13.70;71.90
60313;DHT22;46158;52.850;6.970;2023-04-25T13:32:37;13.80;72.00
60313;DHT22;46158;52.850;6.970;2023-04-25T13:35:11;13.70;71.90
60313;DHT22;46158;52.850;6.970;2023-04-25T13:37:37;13.80;72.00
60313;DHT22;46158;52.850;6.970;2023-04-25T13:40:08;13.70;71.90
60313;DHT22;46158;52.850;6.970;2023-04-25T13:42:36;13.70;71.90
60313;DHT22;46158;52.850;6.970;2023-04-25T13:45:02;13.70;71.90
60313;DHT22;46158;52.850;6.970;2023-04-25T13:47:31;13.70;71.90
60313;DHT22;46158;52.850;6.970;2023-04-25T13:49:56;13.70;71.90
60313;DHT22;46158;52.850;6.970;2023-04-25T13:52:23;13.70;71.90
60313;DHT22;46158;52.850;6.970;2023-04-25T13:54:50;13.70;71.90
60313;DHT22;46158;52.850;6.970;2023-04-25T13:57:16;13.70;71.90
60313;DHT22;46158;52.850;6.970;2023-04-25T13:59:42;13.70;71.90
60313;DHT22;46158;52.850;6.970;2023-04-25T14:02:08;13.70;71.80
60313;DHT22;46158;52.850;6.970;2023-04-25T14:04:34;13.70;71.80
60313;DHT22;46158;52.850;6.970;2023-04-25T14:07:01;13.70;71.80
60313;DHT22;46158;52.850;6.970;2023-04-25T14:09:28;13.70;71.80
60313;DHT22;46158;52.850;6.970;2023-04-25T14:11:54;13.70;71.80
60313;DHT22;46158;52.850;6.970;2023-04-25T14:14:21;13.70;71.80
60313;DHT22;46158;52.850;6.970;2023-04-25T14:16:57;13.70;71.80
60313;DHT22;46158;52.850;6.970;2023-04-25T14:19:23;13.70;71.80
60313;DHT22;46158;52.850;6.970;2023-04-25T14:21:49;13.70;71.80
60313;DHT22;46158;52.850;6.970;2023-04-25T14:24:15;13.70;71.80
60313;DHT22;46158;52.850;6.970;2023-04-25T14:26:41;13.70;71.80
60313;DHT22;46158;52.850;6.970;2023-04-25T14:29:08;13.70;71.70
60313;DHT22;46158;52.850;6.970;2023-04-25T14:31:34;13.70;71.70
60313;DHT22;46158;52.850;6.970;2023-04-25T14:34:01;13.70;71.70
60313;DHT22;46158;52.850;6.970;2023-04-25T14:36:31;13.70;72.40
60313;DHT22;46158;52.850;6.970;2023-04-25T14:38:57;13.70;71.70
60313;DHT22;46158;52.850;6.970;2023-04-25T14:41:23;13.70;71.70
60313;DHT22;46158;52.850;6.970;2023-04-25T14:43:50;13.70;71.70
60313;DHT22;46158;52.850;6.970;2023-04-25T14:46:16;13.70;71.70
60313;DHT22;46158;52.850;6.970;2023-04-25T14:48:42;13.60;71.70
60313;DHT22;46158;52.850;6.970;2023-04-25T14:51:08;13.60;71.80
60313;DHT22;46158;52.850;6.970;2023-04-25T14:53:36;13.70;71.90
60313;DHT22;46158;52.850;6.970;2023-04-25T14:56:02;13.60;72.00
60313;DHT22;46158;52.850;6.970;2023-04-25T14:58:28;13.60;71.90
60313;DHT22;46158;52.850;6.970;2023-04-25T15:00:54;13.60;72.00
60313;DHT22;46158;52.850;6.970;2023-04-25T15:03:21;13.60;72.00
60313;DHT22;46158;52.850;6.970;2023-04-25T15:05:47;13.60;72.10
60313;DHT22;46158;52.850;6.970;2023-04-25T15:08:16;13.60;72.00
60313;DHT22;46158;52.850;6.970;2023-04-25T15:10:42;13.60;72.10
60313;DHT22;46158;52.850;6.970;2023-04-25T15:13:08;13.60;72.10
60313;DHT22;46158;52.850;6.970;2023-04-25T15:15:38;13.60;72.00
60313;DHT22;46158;52.850;6.970;2023-04-25T15:18:04;13.60;72.00
60313;DHT22;46158;52.850;6.970;2023-04-25T15:20:30;13.60;71.90
60313;DHT22;46158;52.850;6.970;2023-04-25T15:22:56;13.60;71.80
60313;DHT22;46158;52.850;6.970;2023-04-25T15:25:22;13.60;71.80
60313;DHT22;46158;52.850;6.970;2023-04-25T15:27:47;13.60;71.70
60313;DHT22;46158;52.850;6.970;2023-04-25T15:30:17;13.60;71.60
60313;DHT22;46158;52.850;6.970;2023-04-25T15:32:44;13.60;71.60
60313;DHT22;46158;52.850;6.970;2023-04-25T15:35:10;13.60;71.40
60313;DHT22;46158;52.850;6.970;2023-04-25T15:37:36;13.60;71.70
60313;DHT22;46158;52.850;6.970;2023-04-25T15:40:05;13.60;71.60
60313;DHT22;46158;52.850;6.970;2023-04-25T15:42:35;13.60;71.50